MAPA DE AEROPUERTO

INFORMACIÓN METAR y TAF


Deprecated: The each() function is deprecated. This message will be suppressed on further calls in /home/customer/www/clickair-va.com/public_html/VAM/vam/helpers/get_metar.php on line 20
METAR FOR LEBL
ADDS - METARS form results

(1820 UTC 13 January 2023)
Data provider http://aviationweather.gov/metar/data/
 
METAR text: LEBL 131800Z VRB01KT CAVOK 10/05 Q1026 NOSIG
Conditions at: LEBL (BARCELONA AIRPOR, ES) observed 1800 UTC 13 January 2023
Temperature: 10.0°C (50°F)
Dewpoint: 5.0°C (41°F) [RH = 71%]
Pressure (altimeter): 30.30 inches Hg (1026.0 mb)
Winds: variable direction winds at 1 MPH (1 knots; 0.5 m/s)
Visibility: 6 or more miles (10+ km)
Ceiling: ceiling and visibility are OK
Clouds: unknown
Weather: no significant weather observed at this time

METAR text: LEBL 131730Z VRB01KT CAVOK 12/05 Q1026 NOSIG
Conditions at: LEBL (BARCELONA AIRPOR, ES) observed 1730 UTC 13 January 2023
Temperature: 12.0°C (54°F)
Dewpoint: 5.0°C (41°F) [RH = 62%]
Pressure (altimeter): 30.30 inches Hg (1026.0 mb)
Winds: variable direction winds at 1 MPH (1 knots; 0.5 m/s)
Visibility: 6 or more miles (10+ km)
Ceiling: ceiling and visibility are OK
Clouds: unknown
Weather: no significant weather observed at this time

Forecast for: LEBL (BARCELONA AIRPOR, ES)
Text: TAF LEBL 131700Z 1318/1418 VRB04KT CAVOK TX16/1412Z TN06/1406Z
Forecast period: 1800 to 2100 UTC 13 January 2023
Forecast type: FROM: standard forecast or significant change
Winds: variable direction winds at 5 MPH (4 knots; 2.1 m/s)
Visibility: 6 or more miles (10+ km)
Ceiling: unknown
Clouds: missing
Weather: no significant weather forecast for this period
Text: BECMG 1321/1323 34009KT
Forecast period: 2100 UTC 13 January 2023 to 1000 UTC 14 January 2023
Forecast type: BECOMING: Conditions expected to become as follows by 2300 UTC 13 January 2023
Winds: from the NNW (340 degrees) at 10 MPH (9 knots; 4.6 m/s)
Visibility: 6 or more miles (10+ km)
Ceiling: unknown
Clouds: missing
Weather: no significant weather forecast for this period
Text: PROB40
Forecast period: 0300 to 1000 UTC 14 January 2023
Forecast type: TEMPORARY: The following changes expected for less than half the time period
Winds: from the NNW (340 degrees) at 17 MPH (15 knots; 7.7 m/s)
gusting to 29 MPH (25 knots; 12.9 m/s)
Visibility: missing
Ceiling: unknown
Clouds: missing
Weather: no significant weather forecast for this period
Text: TEMPO 1403/1410 34015G25KT
Forecast period: 1000 to 1800 UTC 14 January 2023
Forecast type: BECOMING: Conditions expected to become as follows by 1200 UTC 14 January 2023
Winds: from the WSW (240 degrees) at 14 MPH (12 knots; 6.2 m/s)
Visibility: 6 or more miles (10+ km)
Ceiling: unknown
Clouds: missing
Weather: no significant weather forecast for this period